Time;durP1;ratioP1;P1;durP2;ratioP2;P2;SDS_P1;SDS_P2;PMS_P1;PMS_P2;Temp;Humidity;BMP_temperature;BMP_pressure;BME280_temperature;BME280_humidity;BME280_pressure;Samples;Min_cycle;Max_cycle;Signal;HPM_P1;HPM_P2
2022/07/29 00:01:18;;;;;;;3.38;0.60;;;;;;;27.44;35.73;101355.75;5113947;28;20031;-45
2022/07/29 00:03:47;;;;;;;1.48;0.82;;;;;;;27.44;35.92;101369.81;5095831;28;20127;-43
2022/07/29 00:06:16;;;;;;;2.72;1.00;;;;;;;27.36;35.83;101357.50;5096281;28;20085;-46
2022/07/29 00:08:44;;;;;;;1.63;0.90;;;;;;;27.49;35.48;101345.25;5096142;28;20504;-43
2022/07/29 00:11:13;;;;;;;1.63;0.90;;;;;;;27.53;35.68;101361.13;5095284;28;20363;-44
2022/07/29 00:13:41;;;;;;;1.70;0.85;;;;;;;27.54;35.79;101364.63;5095874;28;20031;-51
2022/07/29 00:16:10;;;;;;;2.40;0.80;;;;;;;27.47;35.90;101355.81;5113381;28;20042;-45
2022/07/29 00:18:39;;;;;;;4.78;0.80;;;;;;;27.42;36.04;101361.03;5113446;28;20079;-54
2022/07/29 00:21:07;;;;;;;1.65;0.68;;;;;;;27.47;36.10;101358.44;5113585;28;20367;-56
2022/07/29 00:23:36;;;;;;;2.33;0.80;;;;;;;27.41;36.19;101339.94;5113901;28;20038;-44
2022/07/29 00:26:03;;;;;;;3.90;0.93;;;;;;;27.39;36.26;101347.84;5095483;28;20576;-44
2022/07/29 00:28:32;;;;;;;2.03;0.88;;;;;;;27.39;36.66;101344.31;5113661;28;20039;-44
2022/07/29 00:31:01;;;;;;;1.75;0.73;;;;;;;27.42;36.27;101345.22;5114201;28;20030;-45
2022/07/29 00:33:29;;;;;;;1.85;0.50;;;;;;;27.33;36.52;101332.00;5095618;28;20382;-46
2022/07/29 00:35:58;;;;;;;2.72;0.80;;;;;;;27.40;36.50;101336.44;5113698;28;20024;-44
2022/07/29 00:38:27;;;;;;;2.03;0.93;;;;;;;27.41;36.51;101335.56;5113370;28;20443;-45
2022/07/29 00:40:56;;;;;;;2.75;0.70;;;;;;;27.40;36.29;101332.91;5115002;28;20023;-44
2022/07/29 00:43:25;;;;;;;2.75;1.00;;;;;;;27.25;36.55;101316.16;5117899;28;20026;-52
2022/07/29 00:45:53;;;;;;;2.00;0.70;;;;;;;27.23;36.62;101311.75;5117525;28;20028;-47
2022/07/29 00:48:22;;;;;;;3.35;0.80;;;;;;;27.38;36.67;101324.13;5117799;28;20055;-49
2022/07/29 00:50:51;;;;;;;3.90;1.15;;;;;;;27.35;36.62;101327.63;5099207;28;20367;-52
2022/07/29 00:53:20;;;;;;;1.83;0.80;;;;;;;27.26;37.00;101317.06;5117789;28;20099;-44
2022/07/29 00:55:49;;;;;;;3.45;0.80;;;;;;;27.15;37.09;101311.72;5117792;28;20069;-46
2022/07/29 00:58:17;;;;;;;1.92;0.60;;;;;;;27.19;37.08;101316.16;5117743;28;20028;-47
2022/07/29 01:00:46;;;;;;;4.47;0.80;;;;;;;27.14;37.24;101305.56;5117318;28;20027;-47
2022/07/29 01:03:14;;;;;;;3.30;0.90;;;;;;;27.28;36.75;101318.81;5117423;28;20127;-50
2022/07/29 01:05:43;;;;;;;3.55;0.98;;;;;;;27.26;37.11;101315.28;5117544;28;20481;-51
2022/07/29 01:08:13;;;;;;;1.50;0.60;;;;;;;27.30;36.82;101319.69;5099350;28;20032;-44
2022/07/29 01:10:42;;;;;;;3.03;0.98;;;;;;;27.36;36.89;101323.25;5099507;28;20069;-44
2022/07/29 01:13:10;;;;;;;1.83;0.77;;;;;;;27.34;36.89;101317.94;5117278;28;20023;-48
2022/07/29 01:15:53;;;;;;;1.67;0.90;;;;;;;27.25;37.02;101310.03;5099872;28;20023;-44
2022/07/29 01:18:33;;;;;;;1.77;0.95;;;;;;;27.20;37.12;101306.47;5082308;28;20031;-49
2022/07/29 01:21:23;;;;;;;2.28;0.63;;;;;;;27.29;36.96;101317.94;5117133;28;20420;-43
2022/07/29 01:23:52;;;;;;;2.28;0.80;;;;;;;27.23;37.27;101314.41;5090661;28;20039;-55
2022/07/29 01:26:43;;;;;;;1.05;0.68;;;;;;;27.25;37.23;101320.56;5117140;28;20106;-44
2022/07/29 01:29:19;;;;;;;3.15;0.73;;;;;;;27.13;37.34;101306.47;5110189;28;20036;-43
2022/07/29 01:31:54;;;;;;;3.13;1.20;;;;;;;27.05;37.29;101302.91;5117158;28;20115;-50
2022/07/29 01:34:26;;;;;;;1.95;0.80;;;;;;;27.12;37.54;101316.97;5099004;28;20550;-47
2022/07/29 01:37:16;;;;;;;3.28;1.00;;;;;;;27.16;37.31;101318.75;5098886;28;20035;-46
2022/07/29 01:39:48;;;;;;;1.38;0.75;;;;;;;27.19;37.34;101317.88;5098631;28;20028;-43
2022/07/29 01:42:21;;;;;;;2.85;0.85;;;;;;;27.17;37.31;101332.78;5098322;28;20024;-45
2022/07/29 01:44:57;;;;;;;1.52;0.77;;;;;;;27.12;37.63;101325.78;5116477;28;20015;-45
2022/07/29 01:47:33;;;;;;;1.73;0.57;;;;;;;27.08;37.62;101334.50;5098777;28;20028;-44
2022/07/29 01:50:02;;;;;;;1.80;0.70;;;;;;;27.06;37.65;101338.00;5098765;28;20478;-55
2022/07/29 01:52:35;;;;;;;2.13;0.93;;;;;;;27.08;37.49;101331.88;5098318;28;20027;-48
2022/07/29 01:55:11;;;;;;;2.72;0.90;;;;;;;27.14;37.26;101334.53;5098378;28;20522;-45
2022/07/29 01:57:41;;;;;;;1.58;0.52;;;;;;;27.13;37.56;101334.53;5098378;28;20076;-46
2022/07/29 02:00:10;;;;;;;2.47;0.90;;;;;;;27.11;37.36;101321.38;5116169;28;20030;-57
2022/07/29 02:02:40;;;;;;;1.90;0.80;;;;;;;27.06;37.57;101336.25;5098188;28;20062;-48
2022/07/29 02:05:11;;;;;;;3.05;0.95;;;;;;;27.05;37.64;101331.00;5098063;28;20035;-53
2022/07/29 02:07:41;;;;;;;4.10;0.93;;;;;;;27.01;37.70;101330.06;5116102;28;20375;-45
2022/07/29 02:10:10;;;;;;;2.50;0.95;;;;;;;26.99;37.73;101321.28;5098205;28;20193;-46
2022/07/29 02:12:38;;;;;;;3.50;0.70;;;;;;;27.04;37.60;101329.22;5116129;28;20485;-49
2022/07/29 02:15:08;;;;;;;2.85;0.98;;;;;;;27.05;37.59;101321.31;5098298;28;20030;-49
2022/07/29 02:17:43;;;;;;;2.75;0.88;;;;;;;27.01;37.54;101327.44;5116142;28;20402;-51
2022/07/29 02:20:11;;;;;;;2.17;0.73;;;;;;;26.98;37.60;101322.16;5097687;28;20023;-47
2022/07/29 02:22:41;;;;;;;2.70;0.90;;;;;;;26.96;37.86;101327.41;5115785;28;20055;-56
2022/07/29 02:25:10;;;;;;;2.10;0.80;;;;;;;27.00;37.55;101323.03;5115962;28;20027;-50
2022/07/29 02:27:39;;;;;;;2.65;0.80;;;;;;;27.06;37.49;101335.34;5115553;28;20432;-56
2022/07/29 02:30:09;;;;;;;2.47;0.95;;;;;;;27.05;37.46;101325.72;5097927;28;20034;-46
2022/07/29 02:32:39;;;;;;;3.47;1.20;;;;;;;27.04;37.49;101334.50;5097773;28;20016;-48
2022/07/29 02:35:09;;;;;;;3.08;0.80;;;;;;;26.98;37.67;101322.16;5115562;28;20028;-47
2022/07/29 02:37:38;;;;;;;1.17;0.57;;;;;;;27.03;37.54;101333.59;5115764;28;20026;-57
2022/07/29 02:40:09;;;;;;;3.30;0.75;;;;;;;27.01;37.56;101330.06;5115737;28;20028;-48
2022/07/29 02:42:38;;;;;;;1.50;0.57;;;;;;;27.04;37.41;101323.97;5097600;28;20031;-46
2022/07/29 02:45:07;;;;;;;1.13;0.60;;;;;;;27.04;37.33;101329.22;5080748;28;20028;-45
2022/07/29 02:47:38;;;;;;;3.17;0.93;;;;;;;27.06;37.39;101336.25;5115362;28;20515;-54
2022/07/29 02:50:21;;;;;;;0.80;0.60;;;;;;;26.97;37.71;101333.59;5115118;28;20519;-57
2022/07/29 02:52:54;;;;;;;1.23;0.73;;;;;;;26.92;37.74;101324.78;5114963;28;20023;-56
2022/07/29 02:55:38;;;;;;;1.70;0.77;;;;;;;26.93;37.80;101334.44;5097102;28;20024;-46
2022/07/29 02:58:28;;;;;;;4.20;1.00;;;;;;;26.94;37.60;101334.44;5115143;28;20024;-52
2022/07/29 03:01:17;;;;;;;1.60;0.68;;;;;;;26.94;37.89;101331.78;5114795;28;20128;-49
2022/07/29 03:03:47;;;;;;;0.75;0.63;;;;;;;26.90;37.74;101321.25;5114472;28;20030;-49
2022/07/29 03:06:17;;;;;;;2.03;0.60;;;;;;;26.93;37.69;101329.16;5115033;28;20024;-45
2022/07/29 03:08:46;;;;;;;1.95;0.80;;;;;;;26.91;37.45;101321.25;5115015;28;20055;-47
2022/07/29 03:11:15;;;;;;;1.55;0.75;;;;;;;26.94;37.79;101325.66;5115058;28;20102;-46
2022/07/29 03:13:44;;;;;;;1.58;0.77;;;;;;;26.89;37.91;101320.34;5115079;28;20034;-49
2022/07/29 03:16:13;;;;;;;3.33;0.93;;;;;;;26.91;37.85;101323.88;5114604;28;20098;-47
2022/07/29 03:18:41;;;;;;;2.45;0.85;;;;;;;26.89;37.86;101319.47;5114841;28;20031;-46
2022/07/29 03:21:10;;;;;;;2.60;0.73;;;;;;;26.84;37.96;101315.06;5114453;28;20116;-51
2022/07/29 03:23:39;;;;;;;2.03;0.80;;;;;;;26.83;37.86;101321.19;5114410;28;20070;-48
2022/07/29 03:26:07;;;;;;;3.97;0.90;;;;;;;26.79;37.90;101315.88;5096726;28;20020;-49
2022/07/29 03:28:35;;;;;;;2.70;1.08;;;;;;;26.79;38.22;101315.88;5114381;28;20475;-49
2022/07/29 03:31:04;;;;;;;1.85;0.73;;;;;;;26.79;37.98;101305.34;5096598;28;20039;-49
2022/07/29 03:33:32;;;;;;;3.10;0.82;;;;;;;26.75;38.07;101304.44;5114920;28;20016;-49
2022/07/29 03:36:02;;;;;;;2.25;0.80;;;;;;;26.74;37.97;101305.31;5113911;28;20423;-52
2022/07/29 03:38:31;;;;;;;5.68;0.80;;;;;;;26.80;37.80;101305.41;5113921;28;20024;-55
2022/07/29 03:41:04;;;;;;;3.20;0.80;;;;;;;26.86;37.81;101306.28;5114360;28;20019;-53
2022/07/29 03:43:35;;;;;;;1.92;0.80;;;;;;;26.84;37.94;101301.03;5096147;28;20062;-49
2022/07/29 03:46:07;;;;;;;1.90;0.68;;;;;;;26.91;37.85;101301.94;5096242;28;20028;-54
2022/07/29 03:48:37;;;;;;;1.70;0.70;;;;;;;26.94;37.64;101309.88;5096044;28;20024;-51
2022/07/29 03:51:06;;;;;;;2.78;0.77;;;;;;;26.91;37.86;101309.84;5096220;28;20034;-53
2022/07/29 03:53:36;;;;;;;5.03;1.00;;;;;;;26.90;37.84;101305.44;5095761;28;20397;-54
2022/07/29 03:56:05;;;;;;;2.40;0.70;;;;;;;26.88;37.87;101307.19;5113933;28;20024;-51
2022/07/29 03:58:33;;;;;;;1.90;0.70;;;;;;;26.77;37.95;101307.97;5114082;28;20027;-55
2022/07/29 04:01:02;;;;;;;1.75;0.82;;;;;;;26.75;38.37;101308.81;5114093;28;20055;-51
2022/07/29 04:03:31;;;;;;;3.30;0.70;;;;;;;26.76;38.26;101303.59;5114734;28;20020;-52
2022/07/29 04:06:02;;;;;;;2.00;0.70;;;;;;;26.68;38.35;101306.16;5096071;28;20058;-48
2022/07/29 04:08:29;;;;;;;2.42;0.73;;;;;;;26.62;38.43;101306.09;5113791;28;20023;-52
2022/07/29 04:10:58;;;;;;;3.13;0.73;;;;;;;26.59;38.78;101307.84;5113931;28;20023;-53
2022/07/29 04:13:27;;;;;;;1.45;0.90;;;;;;;26.57;38.53;101304.31;5113766;28;20478;-50
2022/07/29 04:15:55;;;;;;;1.50;0.50;;;;;;;26.59;38.65;101292.06;5113859;28;20036;-46
2022/07/29 04:18:24;;;;;;;1.60;0.70;;;;;;;26.61;38.62;101298.22;5114052;28;20069;-45
2022/07/29 04:20:52;;;;;;;1.48;0.68;;;;;;;26.58;38.65;101288.53;5113662;28;20030;-49
2022/07/29 04:23:21;;;;;;;2.75;0.70;;;;;;;26.67;38.44;101290.34;5113505;28;20039;-51
2022/07/29 04:25:50;;;;;;;2.08;0.80;;;;;;;26.64;38.25;101287.72;5112727;28;20060;-49
2022/07/29 04:28:18;;;;;;;2.05;0.70;;;;;;;26.65;38.58;101286.81;5113956;28;20486;-48
2022/07/29 04:30:47;;;;;;;2.15;0.73;;;;;;;26.71;38.19;101296.53;5113557;28;20036;-48
2022/07/29 04:33:15;;;;;;;2.72;0.80;;;;;;;26.73;38.22;101292.13;5113632;28;20467;-49
2022/07/29 04:35:44;;;;;;;1.85;0.75;;;;;;;26.78;38.05;101300.94;5113586;28;20023;-52
2022/07/29 04:38:12;;;;;;;1.45;0.50;;;;;;;26.73;38.22;101298.28;5113723;28;20099;-50
2022/07/29 04:40:41;;;;;;;1.88;0.70;;;;;;;26.64;38.35;101295.63;5113211;28;20028;-45
2022/07/29 04:43:09;;;;;;;2.58;1.00;;;;;;;26.64;38.42;101296.47;5095802;28;20032;-53
2022/07/29 04:45:37;;;;;;;1.75;0.70;;;;;;;26.65;38.42;101289.44;5114177;28;20031;-45
2022/07/29 04:48:06;;;;;;;0.85;0.70;;;;;;;26.62;38.51;101290.31;5113547;28;20114;-46
2022/07/29 04:50:33;;;;;;;2.58;0.75;;;;;;;26.58;38.42;101295.56;5113007;28;20070;-45
2022/07/29 04:53:02;;;;;;;3.35;0.95;;;;;;;26.58;38.44;101298.19;5113500;28;20028;-52
2022/07/29 04:55:30;;;;;;;1.60;0.70;;;;;;;26.45;38.77;101291.94;5113837;28;20483;-55
2022/07/29 04:57:58;;;;;;;1.52;0.70;;;;;;;26.41;38.81;101293.69;5113698;28;20023;-54
2022/07/29 05:00:27;;;;;;;2.35;0.60;;;;;;;26.39;38.82;101300.66;5112930;28;20034;-45
2022/07/29 05:02:55;;;;;;;1.20;0.50;;;;;;;26.47;38.78;101300.72;5113157;28;20390;-48
2022/07/29 05:05:24;;;;;;;1.77;0.70;;;;;;;26.46;38.54;101288.44;5113359;28;20027;-55
2022/07/29 05:07:52;;;;;;;2.85;0.70;;;;;;;26.60;38.42;101302.56;5113217;28;20588;-51
2022/07/29 05:10:21;;;;;;;2.20;0.75;;;;;;;26.60;38.34;101299.94;5113234;28;20054;-49
2022/07/29 05:12:50;;;;;;;1.10;0.70;;;;;;;26.61;38.46;101312.25;5113285;28;20032;-56
2022/07/29 05:15:18;;;;;;;1.02;0.65;;;;;;;26.55;38.30;101312.22;5113345;28;20020;-48
2022/07/29 05:17:46;;;;;;;2.30;0.88;;;;;;;26.49;38.51;101323.53;5113055;28;20028;-54
2022/07/29 05:20:14;;;;;;;2.30;0.80;;;;;;;26.54;38.36;101318.34;5113200;28;20035;-46
2022/07/29 05:22:42;;;;;;;4.45;1.08;;;;;;;26.44;38.91;101312.13;5112948;28;20620;-50
2022/07/29 05:25:09;;;;;;;3.00;1.08;;;;;;;26.50;38.73;101317.41;5113560;28;20049;-53
2022/07/29 05:27:38;;;;;;;2.35;0.95;;;;;;;26.56;38.60;101315.72;5115361;28;20051;-45
2022/07/29 05:30:07;;;;;;;6.32;0.88;;;;;;;26.58;38.55;101319.25;5116774;28;20032;-48
2022/07/29 05:32:36;;;;;;;2.05;1.00;;;;;;;26.53;38.58;101325.34;5116990;28;20032;-53
2022/07/29 05:35:04;;;;;;;2.88;0.88;;;;;;;26.46;38.69;101325.28;5116691;28;20024;-47
2022/07/29 05:37:33;;;;;;;1.42;0.68;;;;;;;26.44;38.83;101327.91;5116953;28;20047;-46
2022/07/29 05:40:01;;;;;;;2.30;0.90;;;;;;;26.38;39.03;101314.69;5116810;28;20027;-46
2022/07/29 05:42:30;;;;;;;3.25;1.25;;;;;;;26.35;39.07;101317.28;5116874;28;20110;-45
2022/07/29 05:44:58;;;;;;;5.45;0.93;;;;;;;26.40;39.05;101323.47;5098431;28;20030;-47
2022/07/29 05:47:27;;;;;;;1.45;0.70;;;;;;;26.38;39.27;101318.22;5117199;28;20015;-51
2022/07/29 05:49:55;;;;;;;2.65;0.75;;;;;;;26.42;39.12;101319.13;5116500;28;20063;-52
2022/07/29 05:52:23;;;;;;;1.73;1.00;;;;;;;26.45;39.05;101331.41;5116581;28;20047;-49
2022/07/29 05:54:52;;;;;;;3.45;1.00;;;;;;;26.32;39.29;101328.69;5116364;28;20027;-46
2022/07/29 05:57:21;;;;;;;4.50;1.23;;;;;;;26.31;39.41;101337.44;5116874;28;20043;-48
2022/07/29 05:59:50;;;;;;;2.10;0.77;;;;;;;26.33;39.39;101337.44;5116679;28;20028;-45
2022/07/29 06:02:19;;;;;;;4.05;0.60;;;;;;;26.33;39.28;101334.81;5116675;28;20118;-49
2022/07/29 06:04:48;;;;;;;3.35;1.13;;;;;;;26.37;39.38;101347.13;5098277;28;20080;-49
2022/07/29 06:07:17;;;;;;;7.38;1.10;;;;;;;26.37;39.09;101347.13;5116308;28;20493;-44
2022/07/29 06:09:45;;;;;;;2.75;0.95;;;;;;;26.42;39.35;101347.16;5116203;28;20084;-45
2022/07/29 06:12:14;;;;;;;3.30;1.05;;;;;;;26.44;39.07;101355.94;5116164;28;20054;-49
2022/07/29 06:14:42;;;;;;;8.02;0.90;;;;;;;26.41;39.44;101354.19;5098159;28;20027;-44
2022/07/29 06:17:11;;;;;;;2.13;0.77;;;;;;;26.48;39.10;101368.25;5097840;28;20467;-45
2022/07/29 06:19:40;;;;;;;6.55;1.05;;;;;;;26.46;39.15;101370.00;5115871;28;20035;-47
2022/07/29 06:22:08;;;;;;;1.92;0.80;;;;;;;26.48;39.28;101365.63;5098159;28;20118;-45
2022/07/29 06:24:41;;;;;;;11.48;1.63;;;;;;;26.48;39.33;101369.13;5097755;28;20027;-45
2022/07/29 06:27:09;;;;;;;2.15;0.80;;;;;;;26.43;39.30;101364.69;5115950;28;20055;-49
2022/07/29 06:29:37;;;;;;;2.00;0.98;;;;;;;26.46;39.22;101367.38;5097598;28;20020;-48
2022/07/29 06:32:06;;;;;;;2.50;1.00;;;;;;;26.45;39.47;101374.41;5115703;28;20024;-47
2022/07/29 06:34:34;;;;;;;6.95;1.38;;;;;;;26.44;39.43;101371.72;5115616;28;20027;-46
2022/07/29 06:37:08;;;;;;;3.55;0.93;;;;;;;26.48;39.56;101379.66;5115220;28;20423;-46
2022/07/29 06:39:37;;;;;;;5.40;1.15;;;;;;;26.48;39.70;101387.53;5096418;28;20035;-46
2022/07/29 06:42:05;;;;;;;2.45;0.93;;;;;;;26.50;39.90;101385.81;5115740;28;20428;-49
2022/07/29 06:44:34;;;;;;;7.40;0.90;;;;;;;26.48;39.83;101384.91;5115191;28;20031;-46
2022/07/29 06:47:01;;;;;;;5.00;1.00;;;;;;;26.48;39.97;101405.09;5115677;28;20024;-48
2022/07/29 06:49:29;;;;;;;2.92;1.13;;;;;;;26.51;39.68;101390.22;5115554;28;20028;-45
2022/07/29 06:51:58;;;;;;;6.43;1.00;;;;;;;26.51;40.13;101395.47;5115585;28;20023;-49
2022/07/29 06:54:26;;;;;;;2.70;1.00;;;;;;;26.47;39.96;101403.34;5115562;28;20020;-51
2022/07/29 06:56:55;;;;;;;4.47;1.20;;;;;;;26.46;39.97;101406.81;5115570;28;20110;-50
2022/07/29 06:59:23;;;;;;;2.83;0.90;;;;;;;26.46;40.04;101398.94;5115027;28;20051;-46
2022/07/29 07:01:52;;;;;;;4.05;0.65;;;;;;;26.48;40.33;101408.59;5115246;28;20028;-54
2022/07/29 07:04:20;;;;;;;6.47;1.35;;;;;;;26.53;39.68;101409.53;5080013;28;20028;-47
2022/07/29 07:06:49;;;;;;;5.22;1.23;;;;;;;26.53;39.65;101404.25;5096775;28;20057;-50
2022/07/29 07:09:17;;;;;;;3.67;0.95;;;;;;;26.53;39.91;101398.13;5115070;28;20391;-48
2022/07/29 07:11:46;;;;;;;2.33;0.90;;;;;;;26.69;39.20;101412.28;5114930;28;20027;-49
2022/07/29 07:14:18;;;;;;;5.00;0.60;;;;;;;26.78;39.02;101411.50;5114973;28;20045;-49
2022/07/29 07:16:47;;;;;;;4.30;0.93;;;;;;;26.71;39.11;101412.31;5115248;28;20024;-47
2022/07/29 07:19:15;;;;;;;4.82;0.93;;;;;;;26.67;39.01;101406.13;5115118;28;20051;-48
2022/07/29 07:21:44;;;;;;;2.67;0.90;;;;;;;26.70;39.02;101419.31;5114444;28;20027;-52
2022/07/29 07:24:12;;;;;;;2.92;1.17;;;;;;;26.73;38.75;101418.47;5114560;28;20039;-56
2022/07/29 07:26:41;;;;;;;1.27;0.60;;;;;;;26.68;38.82;101415.78;5115067;28;20126;-56
2022/07/29 07:29:09;;;;;;;2.70;0.95;;;;;;;26.74;38.78;101421.13;5096652;28;20542;-47
2022/07/29 07:31:38;;;;;;;6.10;1.17;;;;;;;26.78;38.30;101422.91;5114765;28;20111;-48
2022/07/29 07:34:07;;;;;;;5.03;1.27;;;;;;;26.74;38.96;101420.22;5079960;28;20028;-45
2022/07/29 07:36:36;;;;;;;4.93;0.88;;;;;;;26.64;38.97;101422.78;5096309;28;20072;-49
2022/07/29 07:39:05;;;;;;;2.03;0.93;;;;;;;26.58;39.16;101421.84;5114263;28;20080;-49
2022/07/29 07:41:33;;;;;;;2.08;0.80;;;;;;;26.61;39.08;101425.38;5114085;28;20019;-49
2022/07/29 07:44:02;;;;;;;5.13;0.82;;;;;;;26.74;38.75;101423.75;5114645;28;20031;-51
2022/07/29 07:46:29;;;;;;;3.17;0.77;;;;;;;26.84;38.43;101436.13;5108725;28;20020;-46
2022/07/29 07:48:57;;;;;;;4.82;1.20;;;;;;;26.77;38.74;101436.94;5111338;28;20023;-48
2022/07/29 07:51:24;;;;;;;3.22;0.80;;;;;;;26.79;38.81;101450.09;5110898;28;20023;-48
2022/07/29 07:53:51;;;;;;;2.05;1.00;;;;;;;26.76;38.58;101450.97;5094112;28;20039;-51
2022/07/29 07:56:18;;;;;;;3.83;0.95;;;;;;;26.72;38.48;101438.66;5111537;28;20027;-46
2022/07/29 07:58:45;;;;;;;4.82;1.33;;;;;;;26.91;38.28;101449.38;5111256;28;20055;-49
2022/07/29 08:01:12;;;;;;;2.60;0.80;;;;;;;26.97;38.29;101450.28;5109881;28;20039;-50
2022/07/29 08:03:41;;;;;;;4.10;1.00;;;;;;;26.84;38.55;101443.16;5094295;28;20024;-50
2022/07/29 08:06:08;;;;;;;4.47;0.90;;;;;;;26.90;38.06;101445.84;5111776;28;20574;-56
2022/07/29 08:08:37;;;;;;;5.15;1.13;;;;;;;27.02;38.13;101452.09;5112227;28;20493;-52
2022/07/29 08:11:04;;;;;;;3.30;1.10;;;;;;;27.03;37.95;101452.09;5109377;28;20448;-44
2022/07/29 08:13:31;;;;;;;3.45;1.15;;;;;;;26.95;38.30;101451.16;5111732;28;20015;-52
2022/07/29 08:16:01;;;;;;;3.30;1.13;;;;;;;26.92;38.43;101454.63;5111161;28;20066;-53
2022/07/29 08:18:29;;;;;;;4.93;1.00;;;;;;;26.93;38.52;101458.16;5111292;28;20103;-45
2022/07/29 08:20:57;;;;;;;5.28;1.17;;;;;;;26.98;38.20;101461.69;5110070;28;20023;-50
2022/07/29 08:23:26;;;;;;;1.38;0.70;;;;;;;27.06;38.25;101464.38;5112783;28;20085;-50
2022/07/29 08:25:55;;;;;;;4.97;1.25;;;;;;;27.04;38.07;101459.13;5113996;28;20490;-49
2022/07/29 08:28:23;;;;;;;3.53;1.00;;;;;;;27.10;38.10;101455.66;5113460;28;20015;-48
2022/07/29 08:30:53;;;;;;;7.60;0.90;;;;;;;27.10;38.03;101458.28;5113236;28;20027;-46
2022/07/29 08:33:21;;;;;;;1.92;0.68;;;;;;;27.09;37.98;101454.78;5113615;28;20016;-48
2022/07/29 08:35:50;;;;;;;3.78;0.90;;;;;;;27.11;38.07;101465.31;5112763;28;20552;-56
2022/07/29 08:38:18;;;;;;;2.35;0.80;;;;;;;27.15;38.04;101460.06;5113846;28;20031;-49
2022/07/29 08:40:47;;;;;;;3.47;0.80;;;;;;;27.20;37.73;101454.88;5113492;28;20027;-47
2022/07/29 08:43:14;;;;;;;5.97;1.30;;;;;;;27.23;37.73;101462.75;5113793;28;20085;-56
2022/07/29 08:45:45;;;;;;;3.53;1.05;;;;;;;27.17;38.02;101461.84;5112938;28;20035;-48
2022/07/29 08:48:18;;;;;;;3.13;1.00;;;;;;;27.29;37.78;101462.81;5113657;28;20081;-50
2022/07/29 08:50:47;;;;;;;5.10;1.02;;;;;;;27.29;37.82;101459.31;5113340;28;20035;-52
2022/07/29 08:53:17;;;;;;;4.22;1.08;;;;;;;27.20;37.86;101454.88;5113148;28;20034;-48
2022/07/29 08:55:48;;;;;;;1.58;0.63;;;;;;;27.27;37.71;101461.06;5113537;28;20023;-47
2022/07/29 08:58:16;;;;;;;8.75;1.10;;;;;;;27.27;37.87;101461.91;5113204;28;20024;-54
2022/07/29 09:00:47;;;;;;;1.83;0.82;;;;;;;27.19;38.06;101453.09;5113305;28;20031;-50
2022/07/29 09:03:19;;;;;;;2.35;0.75;;;;;;;27.20;37.86;101457.50;5117648;28;20040;-46
2022/07/29 09:05:48;;;;;;;1.65;0.65;;;;;;;27.25;37.95;101454.88;5117547;28;20032;-46
2022/07/29 09:08:17;;;;;;;2.50;1.00;;;;;;;27.28;38.05;101454.91;5117327;28;20045;-47
2022/07/29 09:10:47;;;;;;;1.85;0.70;;;;;;;27.35;37.69;101454.06;5117423;28;20031;-46
2022/07/29 09:13:14;;;;;;;2.80;1.15;;;;;;;27.37;37.57;101456.72;5117709;28;20031;-45
2022/07/29 09:15:43;;;;;;;5.20;1.20;;;;;;;27.39;38.00;101453.22;5117267;28;20027;-55
2022/07/29 09:18:11;;;;;;;2.20;0.73;;;;;;;27.41;37.79;101461.13;5117224;28;20023;-46
2022/07/29 09:23:27;;;;;;;4.60;1.08;;;;;;;27.40;37.95;101460.25;5109482;28;20113;-49
2022/07/29 09:25:55;;;;;;;4.47;0.73;;;;;;;27.44;37.96;101453.25;5117100;28;20031;-47
2022/07/29 09:28:23;;;;;;;5.07;1.15;;;;;;;27.50;37.66;101455.06;5117563;28;20028;-47
2022/07/29 09:30:52;;;;;;;1.52;0.70;;;;;;;27.50;37.84;101455.06;5117374;28;20035;-55
2022/07/29 09:33:23;;;;;;;4.75;1.25;;;;;;;27.55;37.52;101454.22;5116360;28;20103;-48
2022/07/29 09:36:01;;;;;;;3.58;0.77;;;;;;;27.52;37.79;101446.31;5116772;28;20367;-46
2022/07/29 09:38:29;;;;;;;2.85;1.25;;;;;;;27.61;37.40;101450.75;5098627;28;20035;-45
2022/07/29 09:41:00;;;;;;;3.50;1.02;;;;;;;27.68;37.57;101455.16;5098939;28;20036;-46
2022/07/29 09:43:28;;;;;;;1.90;0.88;;;;;;;27.75;37.44;101459.59;5116669;28;20059;-50
2022/07/29 09:45:57;;;;;;;3.50;1.08;;;;;;;27.79;37.12;101446.44;5116892;28;20393;-48
2022/07/29 09:48:26;;;;;;;1.92;0.70;;;;;;;27.86;36.82;101457.03;5116842;28;20093;-46
2022/07/29 09:50:54;;;;;;;1.23;0.70;;;;;;;27.90;36.83;101456.13;5117005;28;20038;-48
2022/07/29 09:53:42;;;;;;;3.35;0.85;;;;;;;27.89;37.11;101456.16;5116636;28;20023;-56
2022/07/29 09:56:10;;;;;;;2.17;0.77;;;;;;;27.93;37.00;101452.66;5116432;28;20028;-51
2022/07/29 09:58:39;;;;;;;3.17;1.20;;;;;;;27.96;37.03;101455.31;5117514;28;20426;-45
2022/07/29 10:01:07;;;;;;;4.15;1.00;;;;;;;27.99;36.93;101457.94;5116157;28;20387;-50
2022/07/29 10:03:52;;;;;;;2.38;0.75;;;;;;;28.03;36.85;101464.97;5116426;28;20038;-46
2022/07/29 10:06:20;;;;;;;;;;;;;;;28.06;36.75;101458.81;5117153;28;20059;-46
2022/07/29 10:08:49;;;;;;;2.00;0.80;;;;;;;28.13;36.55;101462.44;5116929;28;19915;-46
2022/07/29 10:11:19;;;;;;;2.00;0.60;;;;;;;28.17;36.77;101469.44;5098234;28;20055;-50
2022/07/29 10:13:49;;;;;;;4.03;0.90;;;;;;;28.23;36.38;101469.47;5116099;28;20027;-49
2022/07/29 10:16:18;;;;;;;3.03;0.90;;;;;;;28.27;36.31;101471.25;5097935;28;20031;-49
2022/07/29 10:18:47;;;;;;;1.35;0.80;;;;;;;28.28;36.41;101473.03;5116214;28;20027;-49
2022/07/29 10:21:14;;;;;;;2.88;1.00;;;;;;;28.26;36.33;101466.84;5115615;28;20032;-50
2022/07/29 10:23:43;;;;;;;5.07;0.95;;;;;;;28.31;36.21;101467.72;5115882;28;20384;-46
2022/07/29 10:26:12;;;;;;;2.47;0.80;;;;;;;28.35;35.89;101466.88;5115840;28;20016;-49
2022/07/29 10:28:39;;;;;;;2.25;0.90;;;;;;;28.38;36.21;101465.97;5097499;28;20114;-49
2022/07/29 10:31:09;;;;;;;6.55;1.17;;;;;;;28.39;36.09;101457.19;5115907;28;20038;-52
2022/07/29 10:33:47;;;;;;;3.08;1.02;;;;;;;28.35;36.10;101451.03;5097772;28;20412;-48
2022/07/29 10:36:28;;;;;;;1.73;0.73;;;;;;;28.43;36.21;101461.59;5115525;28;20034;-50
2022/07/29 10:39:01;;;;;;;4.43;1.15;;;;;;;28.47;36.09;101468.66;5097403;28;20027;-48
2022/07/29 10:41:34;;;;;;;3.80;0.90;;;;;;;28.49;36.07;101459.00;5115779;28;20020;-46
2022/07/29 10:44:06;;;;;;;2.22;0.80;;;;;;;28.55;36.01;101466.03;5115473;28;20032;-46
2022/07/29 10:46:40;;;;;;;4.45;1.00;;;;;;;28.60;36.02;101471.31;5097730;28;20158;-48
2022/07/29 10:49:18;;;;;;;3.00;0.90;;;;;;;28.62;35.84;101459.91;5115578;28;20028;-48
2022/07/29 10:52:07;;;;;;;2.20;0.98;;;;;;;28.67;35.68;101462.53;5115250;28;20513;-48
2022/07/29 10:54:36;;;;;;;2.00;0.70;;;;;;;28.71;35.90;101461.63;5105454;28;20039;-49
2022/07/29 10:57:27;;;;;;;2.30;0.70;;;;;;;28.73;35.84;101462.56;5115443;28;20031;-50
2022/07/29 11:00:15;;;;;;;3.13;0.77;;;;;;;28.78;35.67;101457.28;5115148;28;20478;-48
2022/07/29 11:02:45;;;;;;;1.75;0.65;;;;;;;28.82;35.67;101464.31;5114796;28;20032;-47
2022/07/29 11:05:17;;;;;;;2.45;0.90;;;;;;;28.82;35.68;101468.72;5096993;28;20383;-49
2022/07/29 11:08:13;;;;;;;1.00;0.60;;;;;;;28.82;35.77;101469.59;5115474;28;20062;-50
2022/07/29 11:10:41;;;;;;;4.03;0.80;;;;;;;28.86;35.45;101459.94;5110992;28;20394;-55
2022/07/29 11:13:10;;;;;;;2.60;0.80;;;;;;;28.88;35.86;101464.31;5115113;28;20047;-49
2022/07/29 11:15:58;;;;;;;2.20;0.70;;;;;;;28.89;35.65;101466.09;5115115;28;20032;-48
2022/07/29 11:18:26;;;;;;;2.13;0.63;;;;;;;28.93;35.75;101473.13;5115002;28;20092;-49
2022/07/29 11:20:55;;;;;;;3.25;0.90;;;;;;;28.96;35.45;101472.25;5096613;28;20039;-46
2022/07/29 11:23:26;;;;;;;3.42;0.98;;;;;;;28.99;35.44;101472.25;5114636;28;20046;-46
2022/07/29 11:26:15;;;;;;;1.20;0.80;;;;;;;29.01;35.62;101477.53;5113704;28;20036;-49
2022/07/29 11:28:53;;;;;;;5.13;0.77;;;;;;;29.05;35.59;101476.66;5114867;28;20027;-55
2022/07/29 11:31:36;;;;;;;3.63;1.00;;;;;;;29.02;35.62;101472.25;5114437;28;20394;-48
2022/07/29 11:34:25;;;;;;;3.30;0.70;;;;;;;29.09;35.55;101476.63;5114455;28;20032;-48
2022/07/29 11:37:12;;;;;;;1.65;0.60;;;;;;;29.06;35.75;101473.13;5106426;28;20391;-49
2022/07/29 11:39:43;;;;;;;1.85;0.68;;;;;;;29.13;35.54;101480.16;5096264;28;20447;-55
2022/07/29 11:42:30;;;;;;;3.08;0.90;;;;;;;29.14;35.66;101487.19;5114918;28;20020;-53